sensor_id;sensor_type;location;lat;lon;timestamp;P1;durP1;ratioP1;P2;durP2;ratioP2
21438;SDS011;10880;50.302;18.736;2024-01-06T00:00:51;25.30;;;11.37;;
21438;SDS011;10880;50.302;18.736;2024-01-06T00:03:21;24.43;;;12.87;;
21438;SDS011;10880;50.302;18.736;2024-01-06T00:05:47;27.93;;;13.33;;
21438;SDS011;10880;50.302;18.736;2024-01-06T00:08:14;22.90;;;11.50;;
21438;SDS011;10880;50.302;18.736;2024-01-06T00:10:43;19.63;;;9.97;;
21438;SDS011;10880;50.302;18.736;2024-01-06T00:13:11;20.83;;;10.27;;
21438;SDS011;10880;50.302;18.736;2024-01-06T00:15:37;18.67;;;8.83;;
21438;SDS011;10880;50.302;18.736;2024-01-06T00:18:04;22.03;;;10.30;;
21438;SDS011;10880;50.302;18.736;2024-01-06T00:20:31;20.93;;;10.33;;
21438;SDS011;10880;50.302;18.736;2024-01-06T00:22:58;24.80;;;12.17;;
21438;SDS011;10880;50.302;18.736;2024-01-06T00:25:25;24.67;;;11.83;;
21438;SDS011;10880;50.302;18.736;2024-01-06T00:27:51;27.30;;;12.30;;
21438;SDS011;10880;50.302;18.736;2024-01-06T00:30:20;25.40;;;12.03;;
21438;SDS011;10880;50.302;18.736;2024-01-06T00:32:49;24.13;;;11.43;;
21438;SDS011;10880;50.302;18.736;2024-01-06T00:35:16;25.90;;;11.97;;
21438;SDS011;10880;50.302;18.736;2024-01-06T00:37:43;22.00;;;10.50;;
21438;SDS011;10880;50.302;18.736;2024-01-06T00:40:12;23.83;;;11.43;;
21438;SDS011;10880;50.302;18.736;2024-01-06T00:42:40;21.67;;;10.90;;
21438;SDS011;10880;50.302;18.736;2024-01-06T00:45:07;22.50;;;11.60;;
21438;SDS011;10880;50.302;18.736;2024-01-06T00:47:36;25.33;;;11.20;;
21438;SDS011;10880;50.302;18.736;2024-01-06T00:50:03;24.63;;;11.17;;
21438;SDS011;10880;50.302;18.736;2024-01-06T00:52:30;22.10;;;10.50;;
21438;SDS011;10880;50.302;18.736;2024-01-06T00:54:57;27.87;;;12.47;;
21438;SDS011;10880;50.302;18.736;2024-01-06T00:57:23;28.37;;;13.30;;
21438;SDS011;10880;50.302;18.736;2024-01-06T00:59:53;26.70;;;12.30;;
21438;SDS011;10880;50.302;18.736;2024-01-06T01:02:19;23.40;;;11.07;;
21438;SDS011;10880;50.302;18.736;2024-01-06T01:04:46;26.03;;;12.33;;
21438;SDS011;10880;50.302;18.736;2024-01-06T01:07:13;24.10;;;11.23;;
21438;SDS011;10880;50.302;18.736;2024-01-06T01:09:40;21.43;;;10.77;;
21438;SDS011;10880;50.302;18.736;2024-01-06T01:12:06;26.00;;;11.07;;
21438;SDS011;10880;50.302;18.736;2024-01-06T01:14:33;26.60;;;12.33;;
21438;SDS011;10880;50.302;18.736;2024-01-06T01:17:00;28.27;;;12.50;;
21438;SDS011;10880;50.302;18.736;2024-01-06T01:19:26;25.93;;;12.23;;
21438;SDS011;10880;50.302;18.736;2024-01-06T01:21:53;22.47;;;11.03;;
21438;SDS011;10880;50.302;18.736;2024-01-06T01:24:21;27.67;;;12.83;;
21438;SDS011;10880;50.302;18.736;2024-01-06T01:26:49;28.27;;;13.50;;
21438;SDS011;10880;50.302;18.736;2024-01-06T01:29:18;25.47;;;12.00;;
21438;SDS011;10880;50.302;18.736;2024-01-06T01:31:46;25.37;;;11.50;;
21438;SDS011;10880;50.302;18.736;2024-01-06T01:34:13;22.70;;;10.50;;
21438;SDS011;10880;50.302;18.736;2024-01-06T01:36:40;28.53;;;13.43;;
21438;SDS011;10880;50.302;18.736;2024-01-06T01:39:07;25.87;;;11.93;;
21438;SDS011;10880;50.302;18.736;2024-01-06T01:41:33;18.70;;;8.93;;
21438;SDS011;10880;50.302;18.736;2024-01-06T01:44:02;25.67;;;12.13;;
21438;SDS011;10880;50.302;18.736;2024-01-06T01:46:30;26.90;;;11.70;;
21438;SDS011;10880;50.302;18.736;2024-01-06T01:48:57;26.80;;;12.77;;
21438;SDS011;10880;50.302;18.736;2024-01-06T01:51:31;27.53;;;11.80;;
21438;SDS011;10880;50.302;18.736;2024-01-06T01:54:03;26.60;;;12.53;;
21438;SDS011;10880;50.302;18.736;2024-01-06T01:56:31;24.63;;;11.30;;
21438;SDS011;10880;50.302;18.736;2024-01-06T01:59:01;26.93;;;12.03;;
21438;SDS011;10880;50.302;18.736;2024-01-06T02:01:32;26.93;;;11.80;;
21438;SDS011;10880;50.302;18.736;2024-01-06T02:04:00;25.30;;;11.07;;
21438;SDS011;10880;50.302;18.736;2024-01-06T02:06:29;28.27;;;12.20;;
21438;SDS011;10880;50.302;18.736;2024-01-06T02:08:56;32.70;;;14.00;;
21438;SDS011;10880;50.302;18.736;2024-01-06T02:11:23;26.83;;;12.40;;
21438;SDS011;10880;50.302;18.736;2024-01-06T02:13:49;34.23;;;14.30;;
21438;SDS011;10880;50.302;18.736;2024-01-06T02:16:16;32.80;;;13.93;;
21438;SDS011;10880;50.302;18.736;2024-01-06T02:18:43;36.90;;;13.93;;
21438;SDS011;10880;50.302;18.736;2024-01-06T02:21:10;36.03;;;14.60;;
21438;SDS011;10880;50.302;18.736;2024-01-06T02:23:39;32.20;;;13.70;;
21438;SDS011;10880;50.302;18.736;2024-01-06T02:26:09;27.77;;;12.47;;
21438;SDS011;10880;50.302;18.736;2024-01-06T02:28:40;30.97;;;13.53;;
21438;SDS011;10880;50.302;18.736;2024-01-06T02:31:07;22.43;;;11.23;;
21438;SDS011;10880;50.302;18.736;2024-01-06T02:33:34;26.90;;;12.30;;
21438;SDS011;10880;50.302;18.736;2024-01-06T02:36:00;28.07;;;13.10;;
21438;SDS011;10880;50.302;18.736;2024-01-06T02:38:30;25.70;;;13.00;;
21438;SDS011;10880;50.302;18.736;2024-01-06T02:40:56;28.63;;;13.37;;
21438;SDS011;10880;50.302;18.736;2024-01-06T02:43:23;25.03;;;12.03;;
21438;SDS011;10880;50.302;18.736;2024-01-06T02:45:50;24.37;;;11.27;;
21438;SDS011;10880;50.302;18.736;2024-01-06T02:48:19;27.93;;;11.93;;
21438;SDS011;10880;50.302;18.736;2024-01-06T02:50:46;26.30;;;11.70;;
21438;SDS011;10880;50.302;18.736;2024-01-06T02:53:12;23.87;;;11.60;;
21438;SDS011;10880;50.302;18.736;2024-01-06T02:55:39;24.87;;;12.17;;
21438;SDS011;10880;50.302;18.736;2024-01-06T02:58:06;25.67;;;12.17;;
21438;SDS011;10880;50.302;18.736;2024-01-06T03:00:33;25.80;;;12.20;;
21438;SDS011;10880;50.302;18.736;2024-01-06T03:02:59;25.70;;;11.27;;
21438;SDS011;10880;50.302;18.736;2024-01-06T03:05:29;28.53;;;13.10;;
21438;SDS011;10880;50.302;18.736;2024-01-06T03:07:55;19.50;;;10.63;;
21438;SDS011;10880;50.302;18.736;2024-01-06T03:10:23;22.73;;;12.20;;
21438;SDS011;10880;50.302;18.736;2024-01-06T03:12:49;22.77;;;11.87;;
21438;SDS011;10880;50.302;18.736;2024-01-06T03:15:16;25.13;;;12.77;;
21438;SDS011;10880;50.302;18.736;2024-01-06T03:17:43;24.30;;;11.43;;
21438;SDS011;10880;50.302;18.736;2024-01-06T03:20:10;25.70;;;13.07;;
21438;SDS011;10880;50.302;18.736;2024-01-06T03:22:36;22.97;;;11.93;;
21438;SDS011;10880;50.302;18.736;2024-01-06T03:25:04;25.27;;;12.47;;
21438;SDS011;10880;50.302;18.736;2024-01-06T03:27:32;18.57;;;8.77;;
21438;SDS011;10880;50.302;18.736;2024-01-06T03:29:59;12.50;;;6.77;;
21438;SDS011;10880;50.302;18.736;2024-01-06T03:32:25;15.20;;;8.30;;
21438;SDS011;10880;50.302;18.736;2024-01-06T03:34:54;22.17;;;11.57;;
21438;SDS011;10880;50.302;18.736;2024-01-06T03:37:20;26.63;;;13.33;;
21438;SDS011;10880;50.302;18.736;2024-01-06T03:39:50;25.37;;;11.83;;
21438;SDS011;10880;50.302;18.736;2024-01-06T03:42:19;26.67;;;12.67;;
21438;SDS011;10880;50.302;18.736;2024-01-06T03:44:46;26.33;;;13.47;;
21438;SDS011;10880;50.302;18.736;2024-01-06T03:47:13;22.53;;;11.00;;
21438;SDS011;10880;50.302;18.736;2024-01-06T03:49:40;26.53;;;12.97;;
21438;SDS011;10880;50.302;18.736;2024-01-06T03:52:06;24.70;;;11.53;;
21438;SDS011;10880;50.302;18.736;2024-01-06T03:54:33;23.70;;;12.17;;
21438;SDS011;10880;50.302;18.736;2024-01-06T03:57:00;24.27;;;12.17;;
21438;SDS011;10880;50.302;18.736;2024-01-06T03:59:27;24.53;;;12.53;;
21438;SDS011;10880;50.302;18.736;2024-01-06T04:01:53;23.83;;;10.97;;
21438;SDS011;10880;50.302;18.736;2024-01-06T04:04:20;26.87;;;12.23;;
21438;SDS011;10880;50.302;18.736;2024-01-06T04:06:47;24.80;;;12.27;;
21438;SDS011;10880;50.302;18.736;2024-01-06T04:09:13;22.50;;;12.00;;
21438;SDS011;10880;50.302;18.736;2024-01-06T04:11:40;26.70;;;12.97;;
21438;SDS011;10880;50.302;18.736;2024-01-06T04:14:07;29.70;;;13.50;;
21438;SDS011;10880;50.302;18.736;2024-01-06T04:16:34;23.67;;;11.23;;
21438;SDS011;10880;50.302;18.736;2024-01-06T04:19:00;23.13;;;10.80;;
21438;SDS011;10880;50.302;18.736;2024-01-06T04:21:30;21.80;;;11.97;;
21438;SDS011;10880;50.302;18.736;2024-01-06T04:23:56;26.80;;;12.67;;
21438;SDS011;10880;50.302;18.736;2024-01-06T04:26:26;23.53;;;11.73;;
21438;SDS011;10880;50.302;18.736;2024-01-06T04:28:53;21.30;;;10.93;;
21438;SDS011;10880;50.302;18.736;2024-01-06T04:31:20;23.47;;;12.00;;
21438;SDS011;10880;50.302;18.736;2024-01-06T04:33:47;24.60;;;12.13;;
21438;SDS011;10880;50.302;18.736;2024-01-06T04:36:13;26.20;;;12.23;;
21438;SDS011;10880;50.302;18.736;2024-01-06T04:38:43;24.30;;;11.63;;
21438;SDS011;10880;50.302;18.736;2024-01-06T04:41:10;27.33;;;13.00;;
21438;SDS011;10880;50.302;18.736;2024-01-06T04:43:37;25.87;;;13.07;;
21438;SDS011;10880;50.302;18.736;2024-01-06T04:46:03;27.37;;;12.93;;
21438;SDS011;10880;50.302;18.736;2024-01-06T04:48:30;15.93;;;8.23;;
21438;SDS011;10880;50.302;18.736;2024-01-06T04:50:57;23.03;;;11.27;;
21438;SDS011;10880;50.302;18.736;2024-01-06T04:53:24;21.57;;;10.97;;
21438;SDS011;10880;50.302;18.736;2024-01-06T04:55:50;22.03;;;11.17;;
21438;SDS011;10880;50.302;18.736;2024-01-06T04:58:17;26.57;;;11.73;;
21438;SDS011;10880;50.302;18.736;2024-01-06T05:00:44;21.47;;;11.23;;
21438;SDS011;10880;50.302;18.736;2024-01-06T05:03:11;19.50;;;9.93;;
21438;SDS011;10880;50.302;18.736;2024-01-06T05:05:37;22.53;;;11.30;;
21438;SDS011;10880;50.302;18.736;2024-01-06T05:08:04;22.57;;;11.40;;
21438;SDS011;10880;50.302;18.736;2024-01-06T05:10:33;22.83;;;11.70;;
21438;SDS011;10880;50.302;18.736;2024-01-06T05:13:08;24.57;;;12.47;;
21438;SDS011;10880;50.302;18.736;2024-01-06T05:15:38;22.97;;;11.53;;
21438;SDS011;10880;50.302;18.736;2024-01-06T05:18:05;21.63;;;11.27;;
21438;SDS011;10880;50.302;18.736;2024-01-06T05:20:31;20.77;;;10.43;;
21438;SDS011;10880;50.302;18.736;2024-01-06T05:22:58;20.43;;;10.60;;
21438;SDS011;10880;50.302;18.736;2024-01-06T05:25:25;14.13;;;8.07;;
21438;SDS011;10880;50.302;18.736;2024-01-06T05:27:52;22.37;;;10.53;;
21438;SDS011;10880;50.302;18.736;2024-01-06T05:30:19;22.30;;;11.27;;
21438;SDS011;10880;50.302;18.736;2024-01-06T05:32:45;23.83;;;11.90;;
21438;SDS011;10880;50.302;18.736;2024-01-06T05:35:12;22.90;;;11.40;;
21438;SDS011;10880;50.302;18.736;2024-01-06T05:37:40;18.80;;;9.73;;
21438;SDS011;10880;50.302;18.736;2024-01-06T05:40:06;20.10;;;10.87;;
21438;SDS011;10880;50.302;18.736;2024-01-06T05:42:34;21.90;;;11.37;;
21438;SDS011;10880;50.302;18.736;2024-01-06T05:45:00;22.80;;;12.07;;
21438;SDS011;10880;50.302;18.736;2024-01-06T05:47:27;23.30;;;11.87;;
21438;SDS011;10880;50.302;18.736;2024-01-06T05:49:57;24.03;;;11.60;;
21438;SDS011;10880;50.302;18.736;2024-01-06T05:52:23;22.50;;;10.50;;
21438;SDS011;10880;50.302;18.736;2024-01-06T05:54:53;22.83;;;11.23;;
21438;SDS011;10880;50.302;18.736;2024-01-06T05:57:19;23.17;;;11.70;;
21438;SDS011;10880;50.302;18.736;2024-01-06T05:59:46;22.90;;;11.83;;
21438;SDS011;10880;50.302;18.736;2024-01-06T06:02:13;22.73;;;11.80;;
21438;SDS011;10880;50.302;18.736;2024-01-06T06:04:40;23.40;;;11.27;;
21438;SDS011;10880;50.302;18.736;2024-01-06T06:07:06;15.07;;;8.60;;
21438;SDS011;10880;50.302;18.736;2024-01-06T06:09:33;19.90;;;9.73;;
21438;SDS011;10880;50.302;18.736;2024-01-06T06:12:10;20.03;;;10.77;;
21438;SDS011;10880;50.302;18.736;2024-01-06T06:14:36;21.27;;;9.97;;
21438;SDS011;10880;50.302;18.736;2024-01-06T06:17:03;17.00;;;9.37;;
21438;SDS011;10880;50.302;18.736;2024-01-06T06:19:30;14.63;;;8.20;;
21438;SDS011;10880;50.302;18.736;2024-01-06T06:21:57;15.83;;;8.73;;
21438;SDS011;10880;50.302;18.736;2024-01-06T06:24:23;17.73;;;9.33;;
21438;SDS011;10880;50.302;18.736;2024-01-06T06:26:50;20.90;;;11.47;;
21438;SDS011;10880;50.302;18.736;2024-01-06T06:29:17;20.13;;;10.67;;
21438;SDS011;10880;50.302;18.736;2024-01-06T06:31:44;21.30;;;11.60;;
21438;SDS011;10880;50.302;18.736;2024-01-06T06:34:12;23.40;;;11.57;;
21438;SDS011;10880;50.302;18.736;2024-01-06T06:36:39;25.23;;;12.57;;
21438;SDS011;10880;50.302;18.736;2024-01-06T06:39:06;22.60;;;11.83;;
21438;SDS011;10880;50.302;18.736;2024-01-06T06:41:32;23.33;;;12.03;;
21438;SDS011;10880;50.302;18.736;2024-01-06T06:44:01;22.23;;;11.67;;
21438;SDS011;10880;50.302;18.736;2024-01-06T06:46:28;21.70;;;10.80;;
21438;SDS011;10880;50.302;18.736;2024-01-06T06:48:55;16.67;;;9.17;;
21438;SDS011;10880;50.302;18.736;2024-01-06T06:51:22;14.70;;;8.40;;
21438;SDS011;10880;50.302;18.736;2024-01-06T06:53:52;17.97;;;8.90;;
21438;SDS011;10880;50.302;18.736;2024-01-06T06:56:19;19.00;;;9.57;;
21438;SDS011;10880;50.302;18.736;2024-01-06T06:58:46;21.17;;;11.40;;
21438;SDS011;10880;50.302;18.736;2024-01-06T07:01:15;24.47;;;12.43;;
21438;SDS011;10880;50.302;18.736;2024-01-06T07:03:42;23.47;;;11.70;;
21438;SDS011;10880;50.302;18.736;2024-01-06T07:06:12;16.70;;;9.23;;
21438;SDS011;10880;50.302;18.736;2024-01-06T07:08:40;15.07;;;7.93;;
21438;SDS011;10880;50.302;18.736;2024-01-06T07:11:08;12.87;;;7.33;;
21438;SDS011;10880;50.302;18.736;2024-01-06T07:13:37;12.80;;;6.93;;
21438;SDS011;10880;50.302;18.736;2024-01-06T07:16:05;21.03;;;9.60;;
21438;SDS011;10880;50.302;18.736;2024-01-06T07:18:32;22.20;;;11.63;;
21438;SDS011;10880;50.302;18.736;2024-01-06T07:20:59;24.40;;;11.83;;
21438;SDS011;10880;50.302;18.736;2024-01-06T07:23:28;22.53;;;11.27;;
21438;SDS011;10880;50.302;18.736;2024-01-06T07:25:57;22.00;;;10.70;;
21438;SDS011;10880;50.302;18.736;2024-01-06T07:28:24;21.57;;;11.10;;
21438;SDS011;10880;50.302;18.736;2024-01-06T07:30:51;16.73;;;9.13;;
21438;SDS011;10880;50.302;18.736;2024-01-06T07:33:18;22.70;;;11.07;;
21438;SDS011;10880;50.302;18.736;2024-01-06T07:35:45;22.57;;;11.20;;
21438;SDS011;10880;50.302;18.736;2024-01-06T07:38:14;16.93;;;8.30;;
21438;SDS011;10880;50.302;18.736;2024-01-06T07:40:41;19.37;;;9.73;;
21438;SDS011;10880;50.302;18.736;2024-01-06T07:43:10;21.77;;;10.70;;
21438;SDS011;10880;50.302;18.736;2024-01-06T07:45:36;24.43;;;12.23;;
21438;SDS011;10880;50.302;18.736;2024-01-06T07:48:15;23.13;;;12.40;;
21438;SDS011;10880;50.302;18.736;2024-01-06T07:50:42;24.77;;;12.07;;
21438;SDS011;10880;50.302;18.736;2024-01-06T07:53:11;24.33;;;11.90;;
21438;SDS011;10880;50.302;18.736;2024-01-06T07:55:40;22.27;;;11.50;;
21438;SDS011;10880;50.302;18.736;2024-01-06T07:58:09;17.67;;;8.73;;
21438;SDS011;10880;50.302;18.736;2024-01-06T08:00:35;19.07;;;9.83;;
21438;SDS011;10880;50.302;18.736;2024-01-06T08:03:02;22.03;;;11.23;;
21438;SDS011;10880;50.302;18.736;2024-01-06T08:05:34;22.13;;;11.80;;
21438;SDS011;10880;50.302;18.736;2024-01-06T08:08:01;26.17;;;12.87;;
21438;SDS011;10880;50.302;18.736;2024-01-06T08:10:28;24.30;;;12.57;;
21438;SDS011;10880;50.302;18.736;2024-01-06T08:12:55;23.13;;;12.07;;
21438;SDS011;10880;50.302;18.736;2024-01-06T08:15:24;26.60;;;12.47;;
21438;SDS011;10880;50.302;18.736;2024-01-06T08:17:51;20.73;;;11.00;;
21438;SDS011;10880;50.302;18.736;2024-01-06T08:20:18;16.17;;;9.50;;
21438;SDS011;10880;50.302;18.736;2024-01-06T08:22:45;23.07;;;11.57;;
21438;SDS011;10880;50.302;18.736;2024-01-06T08:25:11;26.27;;;12.97;;
21438;SDS011;10880;50.302;18.736;2024-01-06T08:27:43;21.73;;;11.60;;
21438;SDS011;10880;50.302;18.736;2024-01-06T08:30:10;21.80;;;11.40;;
21438;SDS011;10880;50.302;18.736;2024-01-06T08:32:40;23.97;;;11.40;;
21438;SDS011;10880;50.302;18.736;2024-01-06T08:35:09;21.07;;;11.53;;
21438;SDS011;10880;50.302;18.736;2024-01-06T08:37:38;21.50;;;11.67;;
21438;SDS011;10880;50.302;18.736;2024-01-06T08:40:05;21.23;;;11.03;;
21438;SDS011;10880;50.302;18.736;2024-01-06T08:42:32;22.97;;;10.83;;
21438;SDS011;10880;50.302;18.736;2024-01-06T08:45:01;23.60;;;11.70;;
21438;SDS011;10880;50.302;18.736;2024-01-06T08:47:28;26.10;;;13.17;;
21438;SDS011;10880;50.302;18.736;2024-01-06T08:49:58;21.77;;;11.67;;
21438;SDS011;10880;50.302;18.736;2024-01-06T08:52:25;20.13;;;10.40;;
21438;SDS011;10880;50.302;18.736;2024-01-06T08:54:52;15.70;;;8.60;;
21438;SDS011;10880;50.302;18.736;2024-01-06T08:57:19;19.07;;;9.80;;
21438;SDS011;10880;50.302;18.736;2024-01-06T08:59:46;20.43;;;10.70;;
21438;SDS011;10880;50.302;18.736;2024-01-06T09:02:13;25.63;;;13.00;;
21438;SDS011;10880;50.302;18.736;2024-01-06T09:04:40;34.20;;;16.37;;
21438;SDS011;10880;50.302;18.736;2024-01-06T09:07:06;29.33;;;13.80;;
21438;SDS011;10880;50.302;18.736;2024-01-06T09:09:33;29.47;;;13.93;;
21438;SDS011;10880;50.302;18.736;2024-01-06T09:12:00;25.93;;;12.63;;
21438;SDS011;10880;50.302;18.736;2024-01-06T09:14:27;31.77;;;13.80;;
21438;SDS011;10880;50.302;18.736;2024-01-06T09:16:54;25.23;;;12.47;;
21438;SDS011;10880;50.302;18.736;2024-01-06T09:19:21;25.00;;;12.57;;
21438;SDS011;10880;50.302;18.736;2024-01-06T09:21:48;29.00;;;14.20;;
21438;SDS011;10880;50.302;18.736;2024-01-06T09:24:18;33.83;;;16.03;;
21438;SDS011;10880;50.302;18.736;2024-01-06T09:26:47;33.23;;;15.80;;
21438;SDS011;10880;50.302;18.736;2024-01-06T09:29:16;28.37;;;13.57;;
21438;SDS011;10880;50.302;18.736;2024-01-06T09:31:45;27.30;;;13.37;;
21438;SDS011;10880;50.302;18.736;2024-01-06T09:34:12;29.80;;;13.53;;
21438;SDS011;10880;50.302;18.736;2024-01-06T09:36:42;31.70;;;15.43;;
21438;SDS011;10880;50.302;18.736;2024-01-06T09:39:08;25.93;;;12.37;;
21438;SDS011;10880;50.302;18.736;2024-01-06T09:41:35;29.30;;;13.50;;
21438;SDS011;10880;50.302;18.736;2024-01-06T09:44:02;25.13;;;12.60;;
21438;SDS011;10880;50.302;18.736;2024-01-06T09:46:29;29.63;;;13.10;;
21438;SDS011;10880;50.302;18.736;2024-01-06T09:48:56;34.80;;;16.37;;
21438;SDS011;10880;50.302;18.736;2024-01-06T09:51:24;47.23;;;19.40;;
21438;SDS011;10880;50.302;18.736;2024-01-06T09:53:58;41.27;;;18.10;;
21438;SDS011;10880;50.302;18.736;2024-01-06T09:56:26;36.97;;;17.07;;
21438;SDS011;10880;50.302;18.736;2024-01-06T09:58:56;43.63;;;20.03;;
21438;SDS011;10880;50.302;18.736;2024-01-06T10:01:26;38.27;;;17.73;;
21438;SDS011;10880;50.302;18.736;2024-01-06T10:03:55;41.80;;;17.57;;
21438;SDS011;10880;50.302;18.736;2024-01-06T10:06:22;37.63;;;17.40;;
21438;SDS011;10880;50.302;18.736;2024-01-06T10:08:50;34.23;;;15.87;;
21438;SDS011;10880;50.302;18.736;2024-01-06T10:11:22;30.70;;;14.27;;
21438;SDS011;10880;50.302;18.736;2024-01-06T10:13:50;29.10;;;12.90;;
21438;SDS011;10880;50.302;18.736;2024-01-06T10:16:18;25.00;;;11.07;;
21438;SDS011;10880;50.302;18.736;2024-01-06T10:18:47;26.80;;;12.47;;
21438;SDS011;10880;50.302;18.736;2024-01-06T10:21:14;24.90;;;11.77;;
21438;SDS011;10880;50.302;18.736;2024-01-06T10:23:43;29.23;;;14.60;;
21438;SDS011;10880;50.302;18.736;2024-01-06T10:26:14;36.17;;;16.93;;
21438;SDS011;10880;50.302;18.736;2024-01-06T10:28:41;29.67;;;14.47;;
21438;SDS011;10880;50.302;18.736;2024-01-06T10:31:07;29.53;;;15.07;;
21438;SDS011;10880;50.302;18.736;2024-01-06T10:33:35;26.07;;;13.73;;
21438;SDS011;10880;50.302;18.736;2024-01-06T10:36:02;30.83;;;15.30;;
21438;SDS011;10880;50.302;18.736;2024-01-06T10:38:30;32.47;;;16.40;;
21438;SDS011;10880;50.302;18.736;2024-01-06T10:41:04;27.80;;;14.33;;
21438;SDS011;10880;50.302;18.736;2024-01-06T10:43:35;33.77;;;16.33;;
21438;SDS011;10880;50.302;18.736;2024-01-06T10:46:10;31.23;;;15.07;;
21438;SDS011;10880;50.302;18.736;2024-01-06T10:48:38;22.63;;;11.80;;
21438;SDS011;10880;50.302;18.736;2024-01-06T10:51:08;29.60;;;14.77;;
21438;SDS011;10880;50.302;18.736;2024-01-06T10:53:36;35.10;;;18.77;;
21438;SDS011;10880;50.302;18.736;2024-01-06T10:56:07;37.23;;;18.17;;
21438;SDS011;10880;50.302;18.736;2024-01-06T10:58:34;33.80;;;17.27;;
21438;SDS011;10880;50.302;18.736;2024-01-06T11:01:09;29.43;;;15.43;;
21438;SDS011;10880;50.302;18.736;2024-01-06T11:03:39;25.87;;;13.40;;
21438;SDS011;10880;50.302;18.736;2024-01-06T11:06:10;39.07;;;18.80;;
21438;SDS011;10880;50.302;18.736;2024-01-06T11:11:21;28.90;;;14.70;;
21438;SDS011;10880;50.302;18.736;2024-01-06T11:13:52;32.50;;;15.77;;
21438;SDS011;10880;50.302;18.736;2024-01-06T11:16:35;32.67;;;16.20;;
21438;SDS011;10880;50.302;18.736;2024-01-06T11:19:06;42.50;;;19.17;;
21438;SDS011;10880;50.302;18.736;2024-01-06T11:25:03;26.87;;;13.90;;
21438;SDS011;10880;50.302;18.736;2024-01-06T11:27:34;27.67;;;13.90;;
21438;SDS011;10880;50.302;18.736;2024-01-06T11:30:02;26.97;;;13.73;;
21438;SDS011;10880;50.302;18.736;2024-01-06T11:32:32;30.87;;;15.37;;
21438;SDS011;10880;50.302;18.736;2024-01-06T11:35:06;34.27;;;16.10;;
21438;SDS011;10880;50.302;18.736;2024-01-06T11:40:09;36.57;;;18.67;;
21438;SDS011;10880;50.302;18.736;2024-01-06T11:43:08;33.03;;;16.03;;
21438;SDS011;10880;50.302;18.736;2024-01-06T11:45:44;31.87;;;17.00;;
21438;SDS011;10880;50.302;18.736;2024-01-06T11:48:11;34.93;;;17.57;;
21438;SDS011;10880;50.302;18.736;2024-01-06T11:50:38;39.90;;;19.47;;
21438;SDS011;10880;50.302;18.736;2024-01-06T11:53:06;40.30;;;19.73;;
21438;SDS011;10880;50.302;18.736;2024-01-06T11:55:42;42.77;;;19.83;;
21438;SDS011;10880;50.302;18.736;2024-01-06T11:58:18;38.03;;;19.13;;
21438;SDS011;10880;50.302;18.736;2024-01-06T12:00:47;37.40;;;19.33;;
21438;SDS011;10880;50.302;18.736;2024-01-06T12:03:27;35.43;;;18.90;;
21438;SDS011;10880;50.302;18.736;2024-01-06T12:06:00;38.67;;;18.97;;
21438;SDS011;10880;50.302;18.736;2024-01-06T12:08:29;31.00;;;16.40;;
21438;SDS011;10880;50.302;18.736;2024-01-06T12:11:03;33.20;;;17.30;;
21438;SDS011;10880;50.302;18.736;2024-01-06T12:13:30;35.80;;;18.07;;
21438;SDS011;10880;50.302;18.736;2024-01-06T12:15:59;30.63;;;14.37;;
21438;SDS011;10880;50.302;18.736;2024-01-06T12:18:26;25.00;;;13.13;;
21438;SDS011;10880;50.302;18.736;2024-01-06T12:20:53;29.57;;;15.17;;
21438;SDS011;10880;50.302;18.736;2024-01-06T12:23:27;24.17;;;13.20;;
21438;SDS011;10880;50.302;18.736;2024-01-06T12:25:55;30.37;;;15.20;;
21438;SDS011;10880;50.302;18.736;2024-01-06T12:28:29;38.13;;;18.50;;
21438;SDS011;10880;50.302;18.736;2024-01-06T12:30:56;36.10;;;16.90;;
21438;SDS011;10880;50.302;18.736;2024-01-06T12:33:27;34.57;;;17.20;;
21438;SDS011;10880;50.302;18.736;2024-01-06T12:35:54;30.30;;;15.77;;
21438;SDS011;10880;50.302;18.736;2024-01-06T12:38:21;34.27;;;16.40;;
21438;SDS011;10880;50.302;18.736;2024-01-06T12:40:50;42.73;;;19.70;;
21438;SDS011;10880;50.302;18.736;2024-01-06T12:43:19;40.87;;;20.03;;
21438;SDS011;10880;50.302;18.736;2024-01-06T12:45:46;40.93;;;20.13;;
21438;SDS011;10880;50.302;18.736;2024-01-06T12:48:13;35.53;;;17.43;;
21438;SDS011;10880;50.302;18.736;2024-01-06T12:50:40;32.70;;;16.73;;
21438;SDS011;10880;50.302;18.736;2024-01-06T12:53:07;38.30;;;18.27;;
21438;SDS011;10880;50.302;18.736;2024-01-06T12:55:34;35.70;;;17.40;;
21438;SDS011;10880;50.302;18.736;2024-01-06T12:58:00;33.37;;;17.10;;
21438;SDS011;10880;50.302;18.736;2024-01-06T13:00:29;33.03;;;16.63;;
21438;SDS011;10880;50.302;18.736;2024-01-06T13:02:56;29.27;;;14.97;;
21438;SDS011;10880;50.302;18.736;2024-01-06T13:05:23;37.93;;;18.60;;
21438;SDS011;10880;50.302;18.736;2024-01-06T13:07:50;54.87;;;24.70;;
21438;SDS011;10880;50.302;18.736;2024-01-06T13:10:17;45.37;;;21.33;;
21438;SDS011;10880;50.302;18.736;2024-01-06T13:12:46;44.70;;;20.90;;
21438;SDS011;10880;50.302;18.736;2024-01-06T13:15:32;38.37;;;18.77;;
21438;SDS011;10880;50.302;18.736;2024-01-06T13:17:59;35.37;;;17.40;;
21438;SDS011;10880;50.302;18.736;2024-01-06T13:20:26;94.17;;;30.87;;
21438;SDS011;10880;50.302;18.736;2024-01-06T13:22:53;156.20;;;49.77;;
21438;SDS011;10880;50.302;18.736;2024-01-06T13:25:21;77.20;;;30.43;;
21438;SDS011;10880;50.302;18.736;2024-01-06T13:27:50;56.63;;;23.57;;
21438;SDS011;10880;50.302;18.736;2024-01-06T13:30:17;45.87;;;20.67;;
21438;SDS011;10880;50.302;18.736;2024-01-06T13:32:44;41.27;;;20.10;;
21438;SDS011;10880;50.302;18.736;2024-01-06T13:35:10;43.80;;;18.63;;
21438;SDS011;10880;50.302;18.736;2024-01-06T13:37:37;42.67;;;17.93;;
21438;SDS011;10880;50.302;18.736;2024-01-06T13:40:05;49.27;;;20.93;;
21438;SDS011;10880;50.302;18.736;2024-01-06T13:42:35;48.33;;;22.20;;
21438;SDS011;10880;50.302;18.736;2024-01-06T13:45:04;46.83;;;19.67;;
21438;SDS011;10880;50.302;18.736;2024-01-06T13:47:31;39.43;;;18.43;;
21438;SDS011;10880;50.302;18.736;2024-01-06T13:49:58;42.00;;;18.03;;
21438;SDS011;10880;50.302;18.736;2024-01-06T13:52:25;44.50;;;21.10;;
21438;SDS011;10880;50.302;18.736;2024-01-06T13:54:56;48.60;;;21.73;;
21438;SDS011;10880;50.302;18.736;2024-01-06T13:57:23;44.27;;;20.57;;
21438;SDS011;10880;50.302;18.736;2024-01-06T13:59:51;35.87;;;18.20;;
21438;SDS011;10880;50.302;18.736;2024-01-06T14:02:18;31.73;;;16.77;;
21438;SDS011;10880;50.302;18.736;2024-01-06T14:04:46;28.73;;;15.43;;
21438;SDS011;10880;50.302;18.736;2024-01-06T14:07:13;35.07;;;17.13;;
21438;SDS011;10880;50.302;18.736;2024-01-06T14:09:40;32.53;;;16.93;;
21438;SDS011;10880;50.302;18.736;2024-01-06T14:12:07;35.13;;;17.07;;
21438;SDS011;10880;50.302;18.736;2024-01-06T14:14:35;35.70;;;17.80;;
21438;SDS011;10880;50.302;18.736;2024-01-06T14:17:02;31.40;;;16.43;;
21438;SDS011;10880;50.302;18.736;2024-01-06T14:19:29;24.60;;;12.83;;
21438;SDS011;10880;50.302;18.736;2024-01-06T14:21:56;26.13;;;13.70;;
21438;SDS011;10880;50.302;18.736;2024-01-06T14:24:23;29.97;;;15.37;;